Fort William, United Kingdom
Current Conditions -  °F | °C
As of 4:20 PM on Monday 24 Nov 2014 (Local Time) from EGPE Reporting Station
Few Clouds Few Clouds  
Wind Chill: 42°   Ceiling: Unl
Heat Index: 48°   Visibility: 6mi
Dew Point: 41°   Wind: 18mph
Humidity: 76%   Direction: 230°SW
Pressure: 30.09"   Gusts: NA
Location:  56.82°N, 5.11°W
Report Text: EGPE 241620Z 23016KT 9999 FEW020 09/05 Q1019
Loading
Personal Weather Stations






























Interactive Weather Map New forecast layout! Learn more

10-Day Weather Forecast

Advertisements
Track Severe Weather on mobile